Time;durP1;ratioP1;P1;durP2;ratioP2;P2;SDS_P1;SDS_P2;PMS_P1;PMS_P2;Temp;Humidity;BMP_temperature;BMP_pressure;BME280_temperature;BME280_humidity;BME280_pressure;Samples;Min_cycle;Max_cycle;Signal;HPM_P1;HPM_P2
2022/07/17 00:00:53;;;;;;;6.33;5.83;;;;;;;26.34;42.15;95437.94;6172311;28;104525;-57
2022/07/17 00:03:56;;;;;;;5.97;5.50;;;;;;;26.28;42.59;95448.06;6173398;28;104176;-57
2022/07/17 00:07:00;;;;;;;6.00;5.50;;;;;;;26.25;42.63;95442.56;6186880;28;102959;-57
2022/07/17 00:10:04;;;;;;;5.90;5.40;;;;;;;26.35;42.51;95442.19;6167764;28;104211;-57
2022/07/17 00:13:08;;;;;;;4.93;4.63;;;;;;;26.45;42.09;95446.41;6186427;28;104280;-58
2022/07/17 00:16:12;;;;;;;5.40;4.87;;;;;;;26.56;41.90;95455.69;6182449;28;104053;-58
2022/07/17 00:19:15;;;;;;;5.47;5.07;;;;;;;26.64;41.85;95449.50;6160121;28;103970;-58
2022/07/17 00:22:20;;;;;;;5.50;5.10;;;;;;;26.67;41.71;95454.19;6151880;28;103527;-58
2022/07/17 00:25:24;;;;;;;5.20;4.80;;;;;;;26.70;41.60;95452.75;6168398;28;104069;-57
2022/07/17 00:28:27;;;;;;;5.03;4.63;;;;;;;26.76;41.79;95457.63;6176180;28;103072;-57
2022/07/17 00:31:31;;;;;;;5.23;4.93;;;;;;;26.74;41.21;95456.41;6156952;28;104118;-56
2022/07/17 00:34:35;;;;;;;5.07;4.67;;;;;;;26.59;42.17;95455.03;6156848;28;103241;-57
2022/07/17 00:37:40;;;;;;;5.20;4.90;;;;;;;26.47;42.24;95450.34;6162788;28;104316;-57
2022/07/17 00:40:44;;;;;;;5.00;4.70;;;;;;;26.40;42.24;95454.66;6161442;28;102998;-58
2022/07/17 00:43:47;;;;;;;5.70;5.20;;;;;;;26.36;42.13;95461.75;6149369;28;104614;-57
2022/07/17 00:46:51;;;;;;;5.30;4.90;;;;;;;26.28;42.26;95452.66;6175938;28;103361;-57
2022/07/17 00:49:54;;;;;;;5.50;5.10;;;;;;;26.31;42.68;95459.25;6173041;28;103039;-57
2022/07/17 00:52:58;;;;;;;5.27;4.90;;;;;;;26.28;42.69;95464.16;6185652;28;104280;-56
2022/07/17 00:56:02;;;;;;;5.10;4.70;;;;;;;26.23;42.36;95453.63;6167324;28;103113;-57
2022/07/17 00:59:06;;;;;;;6.50;5.90;;;;;;;26.43;42.11;95459.38;6175799;28;104435;-57
2022/07/17 01:02:13;;;;;;;4.90;4.50;;;;;;;26.58;41.80;95458.81;6163175;28;104339;-57
2022/07/17 01:05:17;;;;;;;5.13;4.73;;;;;;;26.66;41.82;95466.06;6161887;28;104073;-58
2022/07/17 01:08:23;;;;;;;4.43;4.13;;;;;;;26.70;41.47;95464.28;6157841;28;103984;-56
2022/07/17 01:11:26;;;;;;;4.70;4.30;;;;;;;26.72;41.51;95475.50;6183555;28;103065;-60
2022/07/17 01:14:29;;;;;;;4.30;4.00;;;;;;;26.62;41.60;95477.75;6168725;28;103454;-59
2022/07/17 01:17:34;;;;;;;4.37;3.93;;;;;;;26.60;41.79;95471.91;6167987;28;104268;-58
2022/07/17 01:20:39;;;;;;;4.67;4.27;;;;;;;26.56;41.95;95474.47;6184623;28;102933;-58
2022/07/17 01:23:43;;;;;;;4.37;4.00;;;;;;;26.39;41.88;95472.66;6183570;28;103100;-59
2022/07/17 01:26:48;;;;;;;4.50;4.20;;;;;;;26.29;42.12;95475.69;6172795;28;103863;-59
2022/07/17 01:29:51;;;;;;;4.60;4.20;;;;;;;26.20;42.45;95472.22;6148525;28;102997;-60
2022/07/17 01:32:54;;;;;;;4.50;4.20;;;;;;;26.16;42.45;95471.31;6171027;28;103255;-59
2022/07/17 01:35:58;;;;;;;4.23;3.93;;;;;;;26.05;42.77;95476.25;6161186;28;104284;-60
2022/07/17 01:39:03;;;;;;;4.80;4.30;;;;;;;26.00;42.74;95473.72;6171045;28;103653;-59
2022/07/17 01:42:06;;;;;;;5.20;4.67;;;;;;;26.01;42.59;95469.16;6160366;28;103325;-59
2022/07/17 01:45:10;;;;;;;4.23;3.93;;;;;;;25.96;42.77;95468.19;6182260;28;103182;-59
2022/07/17 01:48:24;;;;;;;4.30;4.10;;;;;;;26.07;42.82;95471.34;6170123;28;103383;-60
2022/07/17 01:51:27;;;;;;;4.40;4.10;;;;;;;26.16;42.74;95471.31;6172022;28;103282;-60
2022/07/17 01:54:35;;;;;;;5.00;4.40;;;;;;;26.19;42.64;95481.41;6158866;28;104065;-59
2022/07/17 01:57:39;;;;;;;4.10;3.80;;;;;;;26.20;42.41;95467.66;6180400;28;103923;-59
2022/07/17 02:00:43;;;;;;;4.60;4.20;;;;;;;26.23;42.48;95472.41;6181860;28;103008;-58
2022/07/17 02:03:46;;;;;;;4.57;4.17;;;;;;;26.34;42.43;95474.72;6172311;28;104984;-60
2022/07/17 02:06:49;;;;;;;4.53;4.10;;;;;;;26.50;41.89;95478.44;6169696;28;103836;-59
2022/07/17 02:09:54;;;;;;;4.17;3.87;;;;;;;26.42;42.27;95477.38;6160281;28;104203;-60
2022/07/17 02:12:58;;;;;;;4.63;4.23;;;;;;;26.36;42.57;95475.16;6160043;28;103991;-60
2022/07/17 02:16:01;;;;;;;6.63;4.70;;;;;;;26.28;42.32;95471.44;6162896;28;103297;-59
2022/07/17 02:19:04;;;;;;;4.57;4.27;;;;;;;26.18;42.35;95475.25;6163711;28;103086;-60
2022/07/17 02:22:07;;;;;;;4.47;4.07;;;;;;;26.12;42.65;95479.22;6179961;28;102837;-59
2022/07/17 02:25:13;;;;;;;4.00;3.77;;;;;;;26.06;42.64;95477.84;6178453;28;103188;-59
2022/07/17 02:28:16;;;;;;;4.17;3.87;;;;;;;26.01;43.35;95471.84;6165259;28;104798;-58
2022/07/17 02:31:19;;;;;;;8.43;7.73;;;;;;;25.95;43.25;95482.72;6163984;28;103142;-60
2022/07/17 02:34:22;;;;;;;11.27;10.30;;;;;;;25.84;43.53;95475.31;6161348;28;102841;-58
2022/07/17 02:37:25;;;;;;;12.50;11.10;;;;;;;25.96;42.80;95478.91;6158171;28;103333;-60
2022/07/17 02:40:30;;;;;;;9.70;8.90;;;;;;;26.13;42.90;95483.47;6187186;28;103130;-60
2022/07/17 02:43:33;;;;;;;7.30;6.77;;;;;;;26.25;42.63;95480.91;6188139;28;103786;-59
2022/07/17 02:46:36;;;;;;;6.87;6.27;;;;;;;26.37;42.51;95487.47;6184098;28;104147;-58
2022/07/17 02:49:39;;;;;;;7.07;6.57;;;;;;;26.38;42.33;95486.38;6156023;28;103392;-59
2022/07/17 02:52:43;;;;;;;6.00;5.50;;;;;;;26.42;42.19;95495.38;6163213;28;104114;-60
2022/07/17 02:55:48;;;;;;;5.60;5.20;;;;;;;26.42;42.37;95496.16;6162556;28;103345;-60
2022/07/17 02:58:51;;;;;;;7.00;4.83;;;;;;;26.30;42.95;95501.41;6161275;28;104213;-59
2022/07/17 03:01:54;;;;;;;5.50;5.10;;;;;;;26.19;42.68;95498.28;6182467;28;103228;-60
2022/07/17 03:04:57;;;;;;;5.30;4.90;;;;;;;26.10;42.79;95497.53;6187966;28;103005;-60
2022/07/17 03:08:01;;;;;;;4.70;4.40;;;;;;;26.03;42.67;95509.84;6183498;28;103705;-60
2022/07/17 03:11:05;;;;;;;4.57;4.17;;;;;;;25.96;43.01;95504.94;6158337;28;103764;-60
2022/07/17 03:14:08;;;;;;;4.33;4.03;;;;;;;25.92;43.17;95514.75;6186567;28;102808;-59
2022/07/17 03:17:11;;;;;;;4.50;4.20;;;;;;;25.87;43.03;95509.53;6168140;28;103039;-58
2022/07/17 03:20:15;;;;;;;4.30;4.00;;;;;;;25.81;43.29;95505.44;6166526;28;104134;-59
2022/07/17 03:23:18;;;;;;;3.90;3.60;;;;;;;25.84;43.26;95513.63;6177445;28;104189;-58
2022/07/17 03:26:22;;;;;;;4.10;3.90;;;;;;;26.00;42.90;95522.00;6171826;28;103040;-59
2022/07/17 03:29:25;;;;;;;3.93;3.70;;;;;;;26.11;42.35;95517.88;6161565;28;103153;-58
2022/07/17 03:32:29;;;;;;;4.73;3.23;;;;;;;26.21;42.08;95522.09;6159831;28;104263;-58
2022/07/17 03:35:32;;;;;;;3.93;3.63;;;;;;;26.25;42.16;95517.69;6149373;28;104681;-59
2022/07/17 03:38:35;;;;;;;4.10;3.80;;;;;;;26.36;42.16;95531.53;6162322;28;103795;-59
2022/07/17 03:41:39;;;;;;;4.90;4.50;;;;;;;26.40;41.83;95522.53;6162028;28;103466;-60
2022/07/17 03:44:42;;;;;;;4.33;4.03;;;;;;;26.36;42.19;95534.22;6165856;28;103238;-59
2022/07/17 03:47:46;;;;;;;5.23;4.73;;;;;;;26.22;41.86;95534.44;6166829;28;104008;-60
2022/07/17 03:50:49;;;;;;;8.43;7.83;;;;;;;26.11;42.48;95536.66;6184404;28;104041;-59
2022/07/17 03:53:52;;;;;;;12.57;11.60;;;;;;;26.01;42.76;95539.66;6185728;28;103127;-59
2022/07/17 03:56:57;;;;;;;6.87;6.17;;;;;;;25.94;42.77;95547.41;6149533;28;103302;-59
2022/07/17 04:00:00;;;;;;;5.60;5.20;;;;;;;25.86;42.59;95542.81;6170896;28;104080;-60
2022/07/17 04:03:03;;;;;;;7.20;6.73;;;;;;;25.82;43.21;95553.38;6180153;28;103966;-59
2022/07/17 04:06:06;;;;;;;11.60;10.70;;;;;;;25.78;42.81;95557.81;6184947;28;104182;-59
2022/07/17 04:09:09;;;;;;;8.27;7.67;;;;;;;25.75;43.17;95561.13;6165918;28;103086;-59
2022/07/17 04:12:14;;;;;;;8.03;7.37;;;;;;;25.82;43.45;95563.34;6161238;28;105838;-60
2022/07/17 04:15:49;;;;;;;5.70;5.30;;;;;;;26.05;42.61;95561.31;6159915;28;104306;-59
2022/07/17 04:18:41;;;;;;;6.60;6.00;;;;;;;26.21;42.13;95571.22;6132338;28;103919;-57
2022/07/17 04:21:44;;;;;;;9.20;6.57;;;;;;;26.35;41.62;95571.00;6162645;28;103235;-56
2022/07/17 04:24:47;;;;;;;7.20;6.50;;;;;;;26.41;42.11;95569.72;6182791;28;103219;-57
2022/07/17 04:27:52;;;;;;;7.43;6.30;;;;;;;26.50;41.78;95577.75;6173635;28;104284;-56
2022/07/17 04:30:55;;;;;;;8.37;7.30;;;;;;;26.50;41.65;95583.09;6150037;28;105139;-56
2022/07/17 04:33:58;;;;;;;21.03;6.77;;;;;;;26.39;41.02;95571.16;6149853;28;104086;-60
2022/07/17 04:37:02;;;;;;;9.37;6.27;;;;;;;26.18;41.45;95584.44;6165947;28;103668;-60
2022/07/17 04:40:07;;;;;;;6.77;5.40;;;;;;;26.16;42.66;95581.31;6159057;28;102999;-58
2022/07/17 04:43:11;;;;;;;15.80;6.30;;;;;;;26.21;42.20;95586.50;6161630;28;103931;-57
2022/07/17 04:46:14;;;;;;;7.50;4.80;;;;;;;26.22;42.21;95585.41;6168504;28;103958;-59
2022/07/17 04:49:17;;;;;;;5.97;5.10;;;;;;;26.20;42.05;95591.06;6158088;28;103142;-57
2022/07/17 04:52:21;;;;;;;6.90;4.50;;;;;;;26.27;41.70;95591.38;6164954;28;104290;-57
2022/07/17 04:55:24;;;;;;;6.83;4.90;;;;;;;26.44;41.03;95589.78;6178834;28;103276;-57
2022/07/17 04:58:29;;;;;;;6.60;4.03;;;;;;;26.56;40.75;95595.28;6185815;28;104088;-57
2022/07/17 05:01:33;;;;;;;4.77;4.27;;;;;;;26.65;40.79;95606.78;6167049;28;103477;-58
2022/07/17 05:04:37;;;;;;;6.60;4.00;;;;;;;26.56;40.14;95603.31;6171816;28;104766;-57
2022/07/17 05:07:40;;;;;;;7.20;4.63;;;;;;;26.60;38.89;95615.00;6181262;28;103220;-56
2022/07/17 05:10:43;;;;;;;9.60;4.00;;;;;;;26.58;38.08;95614.53;6169853;28;102997;-56
2022/07/17 05:13:48;;;;;;;8.00;3.50;;;;;;;26.45;37.65;95613.59;6161915;28;104188;-56
2022/07/17 05:16:51;;;;;;;11.53;4.00;;;;;;;26.60;37.67;95623.03;6143789;28;103037;-56
2022/07/17 05:19:54;;;;;;;12.33;3.67;;;;;;;26.54;36.67;95621.63;6160183;28;103185;-55
2022/07/17 05:22:57;;;;;;;8.40;3.50;;;;;;;26.63;36.82;95616.25;6173479;28;103976;-56
2022/07/17 05:26:00;;;;;;;10.83;4.37;;;;;;;26.62;37.26;95612.75;6183207;28;103321;-56
2022/07/17 05:29:05;;;;;;;9.97;4.30;;;;;;;26.47;38.00;95616.75;6152681;28;104082;-56
2022/07/17 05:32:08;;;;;;;25.13;5.43;;;;;;;26.40;37.80;95618.38;6152681;28;103526;-57
2022/07/17 05:35:11;;;;;;;17.60;5.17;;;;;;;26.39;38.09;95619.47;6167971;28;103290;-56
2022/07/17 05:38:14;;;;;;;12.27;4.80;;;;;;;26.34;39.47;95627.66;6164690;28;103254;-56
2022/07/17 05:41:17;;;;;;;12.37;4.73;;;;;;;26.26;39.86;95616.66;6156154;28;104203;-56
2022/07/17 05:44:22;;;;;;;8.87;4.57;;;;;;;26.20;39.88;95609.06;6162303;28;103309;-57
2022/07/17 05:47:25;;;;;;;12.40;4.60;;;;;;;26.17;39.84;95618.53;6144083;28;103457;-56
2022/07/17 05:50:28;;;;;;;12.33;4.97;;;;;;;26.37;40.55;95618.97;6146114;28;105749;-57
2022/07/17 05:53:31;;;;;;;13.37;4.73;;;;;;;26.52;40.41;95616.56;6158688;28;103924;-57
2022/07/17 05:56:34;;;;;;;9.97;3.97;;;;;;;26.70;40.55;95620.03;6161169;28;104338;-56
2022/07/17 05:59:39;;;;;;;6.27;3.93;;;;;;;26.78;41.07;95613.06;6183726;28;103137;-59
2022/07/17 06:02:42;;;;;;;8.90;5.20;;;;;;;26.88;41.40;95623.44;6176046;28;104414;-57
2022/07/17 06:05:45;;;;;;;8.77;4.20;;;;;;;26.95;40.71;95625.63;6187085;28;103257;-57
2022/07/17 06:08:48;;;;;;;10.43;4.93;;;;;;;27.03;40.77;95627.47;6187980;28;104325;-56
2022/07/17 06:11:51;;;;;;;6.93;4.20;;;;;;;27.05;40.79;95630.63;6182294;28;103137;-56
2022/07/17 06:14:56;;;;;;;6.33;4.30;;;;;;;27.03;40.91;95632.84;6181209;28;102932;-56
2022/07/17 06:18:02;;;;;;;5.60;4.10;;;;;;;26.84;40.86;95631.34;6188360;28;104444;-56
2022/07/17 06:21:05;;;;;;;5.03;3.80;;;;;;;26.78;41.02;95631.84;6189077;28;103970;-57
2022/07/17 06:24:08;;;;;;;12.30;5.37;;;;;;;26.67;40.81;95628.72;6175399;28;104010;-57
2022/07/17 06:27:11;;;;;;;5.97;3.80;;;;;;;26.60;41.08;95635.69;6188705;28;104172;-57
2022/07/17 06:30:16;;;;;;;5.00;4.10;;;;;;;26.54;40.79;95637.72;6189454;28;103962;-56
2022/07/17 06:33:19;;;;;;;5.90;5.23;;;;;;;26.55;43.08;95642.00;6189116;28;103006;-56
2022/07/17 06:36:23;;;;;;;5.47;4.67;;;;;;;26.57;42.30;95637.09;6175545;28;103535;-57
2022/07/17 06:39:26;;;;;;;4.40;4.00;;;;;;;26.64;41.47;95639.31;6188864;28;103123;-57
2022/07/17 06:42:29;;;;;;;4.30;3.80;;;;;;;26.75;41.40;95632.50;6188931;28;103177;-56
2022/07/17 06:45:35;;;;;;;4.43;4.03;;;;;;;26.90;40.89;95637.34;6188915;28;104720;-56
2022/07/17 06:48:39;;;;;;;4.80;4.40;;;;;;;27.00;40.30;95639.66;6153400;28;104670;-56
2022/07/17 06:51:45;;;;;;;4.90;4.03;;;;;;;27.09;39.98;95631.56;6163425;28;103701;-56
2022/07/17 06:54:48;;;;;;;3.80;3.50;;;;;;;27.16;39.87;95631.84;6163570;28;104212;-57
2022/07/17 06:57:51;;;;;;;4.20;3.73;;;;;;;27.20;39.73;95631.97;6156859;28;103498;-56
2022/07/17 07:00:56;;;;;;;4.47;4.03;;;;;;;27.27;39.69;95641.16;6159250;28;102768;-57
2022/07/17 07:03:59;;;;;;;4.63;4.23;;;;;;;27.25;39.98;95642.56;6167197;28;102965;-56
2022/07/17 07:07:02;;;;;;;4.77;4.20;;;;;;;27.07;39.10;95644.56;6187779;28;102995;-56
2022/07/17 07:10:06;;;;;;;4.40;4.10;;;;;;;27.00;39.70;95646.94;6172171;28;104197;-56
2022/07/17 07:13:09;;;;;;;3.77;3.47;;;;;;;26.99;40.02;95642.69;6148904;28;103406;-58
2022/07/17 07:16:14;;;;;;;7.47;4.63;;;;;;;26.56;40.10;95651.66;6143895;28;105863;-54
2022/07/17 07:19:17;;;;;;;12.70;6.03;;;;;;;25.84;39.78;95641.56;6176631;28;104000;-57
2022/07/17 07:22:20;;;;;;;15.10;6.67;;;;;;;25.66;40.20;95654.94;6175715;28;104301;-58
2022/07/17 07:25:24;;;;;;;22.00;7.07;;;;;;;25.49;39.86;95646.09;6173474;28;103140;-57
2022/07/17 07:28:27;;;;;;;16.20;6.90;;;;;;;25.51;39.17;95643.88;6163358;28;103976;-60
2022/07/17 07:31:32;;;;;;;19.97;6.63;;;;;;;25.67;38.71;95658.41;6151969;28;102998;-57
2022/07/17 07:34:36;;;;;;;17.97;7.23;;;;;;;25.79;37.86;95653.25;6163556;28;104279;-59
2022/07/17 07:37:39;;;;;;;17.33;5.83;;;;;;;25.85;37.12;95651.97;6185208;28;104265;-59
2022/07/17 07:40:42;;;;;;;15.17;6.07;;;;;;;25.89;35.94;95649.47;6169353;28;104014;-57
2022/07/17 07:43:45;;;;;;;25.70;6.20;;;;;;;25.93;36.02;95650.41;6152649;28;104288;-58
2022/07/17 07:46:50;;;;;;;13.83;5.73;;;;;;;25.96;35.49;95657.81;6161132;28;103222;-59
2022/07/17 07:49:53;;;;;;;18.00;5.10;;;;;;;25.92;35.17;95649.63;6138555;28;104294;-58
2022/07/17 07:52:56;;;;;;;8.10;5.00;;;;;;;25.94;34.57;95649.31;6160413;28;103121;-59
2022/07/17 07:55:59;;;;;;;8.07;4.60;;;;;;;25.88;34.82;95654.03;6151592;28;102980;-60
2022/07/17 07:59:02;;;;;;;10.63;4.87;;;;;;;25.65;34.86;95650.69;6164202;28;103542;-60
2022/07/17 08:02:07;;;;;;;9.10;4.33;;;;;;;25.58;35.47;95658.41;6180141;28;103151;-59
2022/07/17 08:05:10;;;;;;;15.70;4.63;;;;;;;25.48;35.09;95649.88;6176888;28;102741;-60
2022/07/17 08:08:14;;;;;;;6.70;4.93;;;;;;;25.36;35.50;95653.94;6157289;28;104028;-59
2022/07/17 08:11:17;;;;;;;10.00;4.83;;;;;;;25.24;35.16;95639.56;6162220;28;103022;-59
2022/07/17 08:14:20;;;;;;;10.73;5.90;;;;;;;25.17;35.63;95644.56;6178219;28;103122;-59
2022/07/17 08:17:24;;;;;;;9.13;5.63;;;;;;;24.98;35.60;95650.97;6154956;28;102942;-58
2022/07/17 08:20:28;;;;;;;7.90;5.27;;;;;;;24.85;35.53;95654.53;6160477;28;103942;-59
2022/07/17 08:23:31;;;;;;;15.00;5.87;;;;;;;25.13;35.33;95657.78;6173997;28;103188;-59
2022/07/17 08:26:34;;;;;;;16.53;5.83;;;;;;;25.21;35.66;95657.03;6181205;28;104084;-61
2022/07/17 08:29:37;;;;;;;11.00;5.30;;;;;;;25.05;35.39;95653.22;6162293;28;103287;-58
2022/07/17 08:33:02;;;;;;;10.83;5.00;;;;;;;25.05;35.63;95648.63;6153150;28;105336;-60
2022/07/17 08:36:05;;;;;;;13.20;4.70;;;;;;;25.21;34.61;95648.22;6163895;28;103062;-54
2022/07/17 08:39:09;;;;;;;14.83;5.37;;;;;;;25.15;34.42;95642.19;6165562;28;103338;-73
2022/07/17 08:42:16;;;;;;;6.10;4.63;;;;;;;25.22;34.11;95644.44;6150830;28;104291;-67
2022/07/17 08:45:19;;;;;;;7.27;4.40;;;;;;;25.06;33.38;95647.53;6160108;28;102961;-65
2022/07/17 08:48:27;;;;;;;8.23;4.33;;;;;;;25.14;34.13;95655.91;6155909;28;103113;-68
2022/07/17 08:51:31;;;;;;;6.83;4.37;;;;;;;25.03;34.39;95644.66;6170697;28;104044;-67
2022/07/17 08:54:34;;;;;;;5.30;3.83;;;;;;;24.93;34.59;95647.63;6164669;28;104129;-65
2022/07/17 08:57:40;;;;;;;9.40;4.70;;;;;;;24.91;34.64;95639.91;6158821;28;103236;-65
2022/07/17 09:00:49;;;;;;;5.30;4.07;;;;;;;24.69;35.05;95629.25;6169392;28;104218;-65
2022/07/17 09:04:05;;;;;;;6.13;3.73;;;;;;;24.59;35.19;95632.19;6161818;28;104142;-57
2022/07/17 09:07:08;;;;;;;8.10;4.10;;;;;;;24.61;34.62;95632.66;6160478;28;103331;-62
2022/07/17 09:10:12;;;;;;;5.03;3.97;;;;;;;24.50;34.44;95627.56;6161637;28;104103;-60
2022/07/17 09:13:18;;;;;;;7.23;3.90;;;;;;;24.33;34.55;95608.72;6177916;28;102910;-56
2022/07/17 09:16:21;;;;;;;4.87;3.67;;;;;;;24.36;34.60;95621.53;6155241;28;105278;-61
2022/07/17 09:19:28;;;;;;;3.90;3.50;;;;;;;24.32;34.49;95623.22;6181379;28;102987;-63
2022/07/17 09:22:31;;;;;;;4.10;3.80;;;;;;;24.32;34.19;95625.88;6179623;28;104148;-62
2022/07/17 09:25:37;;;;;;;5.50;3.80;;;;;;;24.27;33.91;95628.69;6126080;28;103057;-62
2022/07/17 09:28:49;;;;;;;3.70;3.40;;;;;;;24.38;34.10;95627.34;6156950;28;104299;-62
2022/07/17 09:31:53;;;;;;;3.80;3.40;;;;;;;24.55;33.61;95634.69;6185084;28;103234;-61
2022/07/17 09:34:59;;;;;;;4.13;3.73;;;;;;;24.60;33.52;95623.06;6186269;28;103087;-61
2022/07/17 09:38:02;;;;;;;4.50;3.87;;;;;;;24.75;33.22;95630.72;6153469;28;103984;-59
2022/07/17 09:41:12;;;;;;;5.63;3.63;;;;;;;24.83;33.05;95627.28;6163699;28;102950;-61
2022/07/17 09:44:16;;;;;;;3.83;3.50;;;;;;;24.84;32.65;95626.16;6185519;28;103114;-62
2022/07/17 09:47:20;;;;;;;4.00;3.50;;;;;;;24.91;32.62;95620.38;6167749;28;103939;-62
2022/07/17 09:50:28;;;;;;;4.93;3.90;;;;;;;25.01;33.49;95628.91;6159721;28;103280;-60
2022/07/17 09:53:37;;;;;;;4.23;3.47;;;;;;;24.96;33.17;95629.06;6164465;28;103352;-60
2022/07/17 09:56:41;;;;;;;5.40;3.43;;;;;;;25.02;33.23;95622.47;6141108;28;104160;-60
2022/07/17 09:59:46;;;;;;;3.70;3.40;;;;;;;25.01;33.47;95618.19;6140396;28;103002;-55
2022/07/17 10:02:50;;;;;;;3.40;3.10;;;;;;;25.00;32.46;95624.66;6182965;28;104665;-60
2022/07/17 10:05:55;;;;;;;8.30;4.60;;;;;;;25.32;33.54;95617.34;6177119;28;103630;-60
2022/07/17 10:08:59;;;;;;;5.37;3.20;;;;;;;25.89;33.97;95622.66;6159227;28;102971;-60
2022/07/17 10:12:03;;;;;;;4.57;3.20;;;;;;;26.20;34.44;95617.91;6145260;28;103854;-56
2022/07/17 10:15:08;;;;;;;3.13;2.93;;;;;;;26.38;34.99;95618.69;6179254;28;103132;-61
2022/07/17 10:18:11;;;;;;;3.73;3.30;;;;;;;26.52;34.65;95619.25;6178672;28;103636;-59
2022/07/17 10:21:21;;;;;;;3.87;3.47;;;;;;;26.66;35.13;95613.72;6177526;28;102827;-57
2022/07/17 10:24:24;;;;;;;4.77;4.37;;;;;;;26.67;34.90;95611.81;6168743;28;103697;-60
2022/07/17 10:27:30;;;;;;;5.10;4.60;;;;;;;26.98;34.33;95603.50;6175928;28;104156;-56
2022/07/17 10:30:33;;;;;;;5.27;4.43;;;;;;;27.11;34.24;95610.53;6163779;28;103059;-57
2022/07/17 10:33:37;;;;;;;3.80;3.60;;;;;;;27.15;34.25;95592.66;6172558;28;103630;-55
2022/07/17 10:36:43;;;;;;;4.37;3.97;;;;;;;27.32;34.61;95603.34;6184832;28;106196;-56
2022/07/17 10:40:05;;;;;;;4.43;3.97;;;;;;;27.35;34.05;95601.88;6176416;28;104060;-56
2022/07/17 10:43:09;;;;;;;4.20;3.90;;;;;;;27.40;34.18;95605.19;6142532;28;104141;-56
2022/07/17 10:46:12;;;;;;;4.33;3.93;;;;;;;27.42;34.44;95597.59;6152609;28;104157;-55
2022/07/17 10:49:16;;;;;;;4.17;3.80;;;;;;;27.46;34.44;95603.88;6173295;28;103338;-56
2022/07/17 10:52:20;;;;;;;4.40;4.00;;;;;;;27.43;34.37;95603.75;6187343;28;104129;-56
2022/07/17 10:55:24;;;;;;;4.40;4.00;;;;;;;27.31;35.22;95601.75;6180508;28;104172;-56
2022/07/17 10:58:29;;;;;;;3.93;3.63;;;;;;;27.26;35.94;95593.09;6181697;28;104129;-56
2022/07/17 11:01:32;;;;;;;4.20;3.80;;;;;;;27.18;35.73;95595.47;6180166;28;103143;-56
2022/07/17 11:04:39;;;;;;;4.37;3.50;;;;;;;27.15;36.29;95600.72;6184499;28;103498;-56
2022/07/17 11:07:55;;;;;;;4.33;3.93;;;;;;;27.10;35.73;95590.94;6159387;28;103814;-56
2022/07/17 11:10:59;;;;;;;4.70;4.07;;;;;;;27.09;35.95;95591.28;6162111;28;104105;-56
2022/07/17 11:14:13;;;;;;;4.30;3.90;;;;;;;27.04;36.50;95588.75;6161439;28;104086;-56
2022/07/17 11:17:20;;;;;;;7.03;4.30;;;;;;;27.15;36.60;95581.91;6165130;28;103242;-55
2022/07/17 11:20:23;;;;;;;4.90;4.20;;;;;;;27.24;35.80;95589.94;6165399;28;103966;-56
2022/07/17 11:23:30;;;;;;;8.63;4.60;;;;;;;27.33;36.05;95586.09;6162300;28;104273;-56
2022/07/17 11:26:33;;;;;;;5.80;4.60;;;;;;;27.42;35.51;95583.34;6162862;28;104321;-56
2022/07/17 11:29:37;;;;;;;6.97;4.83;;;;;;;27.50;35.70;95577.13;6160151;28;103973;-55
2022/07/17 11:32:41;;;;;;;5.30;4.80;;;;;;;27.61;35.33;95580.22;6180546;28;103165;-56
2022/07/17 11:35:47;;;;;;;5.87;4.63;;;;;;;27.70;35.28;95573.63;6187282;28;103136;-56
2022/07/17 11:38:52;;;;;;;6.63;4.63;;;;;;;27.70;35.50;95575.53;6176912;28;103060;-55
2022/07/17 11:41:57;;;;;;;6.40;4.97;;;;;;;27.73;35.67;95569.53;6159523;28;103698;-56
2022/07/17 11:45:00;;;;;;;7.53;4.87;;;;;;;27.77;35.73;95570.44;6186366;28;103079;-56
2022/07/17 11:48:04;;;;;;;6.73;5.17;;;;;;;27.80;35.43;95564.41;6162306;28;103301;-55
2022/07/17 11:51:07;;;;;;;5.47;4.57;;;;;;;27.83;35.81;95552.19;6167356;28;103170;-55
2022/07/17 11:54:13;;;;;;;7.80;5.40;;;;;;;27.79;35.37;95556.66;6176390;28;104057;-56
2022/07/17 11:57:17;;;;;;;5.93;4.80;;;;;;;27.84;35.57;95554.53;6187377;28;104504;-55
2022/07/17 12:00:21;;;;;;;5.37;4.83;;;;;;;27.85;35.57;95556.13;6181730;28;103177;-56
2022/07/17 12:03:26;;;;;;;6.27;4.67;;;;;;;27.81;36.43;95551.72;6175439;28;103062;-55
2022/07/17 12:06:30;;;;;;;5.30;4.90;;;;;;;27.67;36.68;95541.25;6180048;28;102925;-56
2022/07/17 12:09:35;;;;;;;5.17;4.40;;;;;;;27.58;36.79;95546.72;6183959;28;104149;-55
2022/07/17 12:12:38;;;;;;;6.87;4.63;;;;;;;27.48;36.83;95538.25;6185873;28;103145;-56
2022/07/17 12:15:44;;;;;;;4.90;4.40;;;;;;;27.42;36.76;95538.44;6177222;28;104734;-56
2022/07/17 12:19:08;;;;;;;4.90;4.50;;;;;;;27.37;37.35;95545.91;6183195;28;103052;-56
2022/07/17 12:22:11;;;;;;;4.53;4.13;;;;;;;27.31;37.47;95545.31;6185601;28;103016;-56
2022/07/17 12:25:26;;;;;;;4.60;4.30;;;;;;;27.26;37.77;95539.34;6161534;28;103193;-56
2022/07/17 12:28:30;;;;;;;4.63;3.83;;;;;;;27.36;37.90;95541.63;6160973;28;105061;-55
2022/07/17 12:31:33;;;;;;;4.80;4.33;;;;;;;27.27;37.60;95539.03;6183863;28;103324;-58
2022/07/17 12:34:38;;;;;;;6.33;4.10;;;;;;;27.42;37.04;95537.66;6157115;28;102881;-61
2022/07/17 12:37:41;;;;;;;4.97;4.30;;;;;;;27.54;36.62;95536.91;6158793;28;103264;-60
2022/07/17 12:40:46;;;;;;;5.13;4.10;;;;;;;27.51;36.29;95535.69;6177756;28;103645;-61
2022/07/17 12:43:50;;;;;;;4.43;4.00;;;;;;;27.57;36.36;95533.59;6178793;28;103072;-61
2022/07/17 12:46:54;;;;;;;4.03;3.73;;;;;;;27.56;36.81;95540.09;6158168;28;103285;-59
2022/07/17 12:49:57;;;;;;;4.73;4.13;;;;;;;27.54;36.80;95529.63;6149588;28;104736;-61
2022/07/17 12:53:00;;;;;;;5.07;4.60;;;;;;;27.63;36.58;95537.66;6180955;28;104615;-59
2022/07/17 12:56:06;;;;;;;5.10;4.23;;;;;;;27.60;36.04;95532.94;6157312;28;103948;-59
2022/07/17 12:59:09;;;;;;;8.13;4.50;;;;;;;27.66;36.10;95534.28;6162638;28;103408;-60
2022/07/17 13:02:13;;;;;;;5.00;4.60;;;;;;;27.74;35.95;95533.44;6165302;28;105283;-61
2022/07/17 13:05:16;;;;;;;5.50;4.07;;;;;;;27.71;35.79;95528.72;6164629;28;102957;-59
2022/07/17 13:08:19;;;;;;;4.67;4.27;;;;;;;27.68;36.39;95526.69;6157271;28;104135;-60
2022/07/17 13:11:24;;;;;;;5.00;4.60;;;;;;;27.56;36.72;95526.66;6160951;28;103418;-60
2022/07/17 13:14:27;;;;;;;7.27;4.03;;;;;;;27.46;36.87;95522.44;6150466;28;103101;-62
2022/07/17 13:17:32;;;;;;;9.17;4.60;;;;;;;27.33;36.97;95508.16;6157052;28;103351;-59
2022/07/17 13:20:35;;;;;;;4.73;4.33;;;;;;;27.29;37.46;95523.34;6180769;28;103102;-62
2022/07/17 13:23:38;;;;;;;7.50;4.97;;;;;;;27.29;37.80;95517.97;6169282;28;104189;-62
2022/07/17 13:26:42;;;;;;;6.77;4.70;;;;;;;27.04;38.54;95508.16;6159218;28;103144;-61
2022/07/17 13:29:46;;;;;;;6.67;4.40;;;;;;;27.17;37.90;95517.88;6171288;28;103858;-57
2022/07/17 13:32:49;;;;;;;6.17;4.50;;;;;;;27.14;38.59;95515.84;6169253;28;103172;-62
2022/07/17 13:35:54;;;;;;;4.73;4.30;;;;;;;27.14;39.06;95510.47;6159719;28;103618;-60
2022/07/17 13:38:57;;;;;;;6.30;4.50;;;;;;;27.28;38.87;95507.56;6158790;28;104091;-58
2022/07/17 13:42:01;;;;;;;4.63;4.20;;;;;;;27.40;38.87;95508.44;6158120;28;103037;-61
2022/07/17 13:45:05;;;;;;;5.57;4.20;;;;;;;27.47;37.66;95497.13;6159403;28;103705;-59
2022/07/17 13:48:09;;;;;;;8.63;4.40;;;;;;;27.49;38.18;95500.28;6144225;28;103224;-61
2022/07/17 13:51:13;;;;;;;9.47;4.63;;;;;;;27.67;37.88;95496.31;6159768;28;104043;-68
2022/07/17 13:54:16;;;;;;;15.00;4.60;;;;;;;27.66;38.01;95489.38;6160132;28;103637;-62
2022/07/17 13:57:21;;;;;;;7.70;4.60;;;;;;;27.74;37.38;95510.03;6155565;28;102945;-62
2022/07/17 14:00:24;;;;;;;9.20;4.03;;;;;;;27.84;37.30;95508.81;6176519;28;102964;-61
2022/07/17 14:03:27;;;;;;;7.00;4.20;;;;;;;27.90;38.33;95504.84;6169273;28;103265;-62
2022/07/17 14:06:31;;;;;;;7.50;4.43;;;;;;;27.90;38.42;95499.47;6155779;28;103250;-62
2022/07/17 14:09:34;;;;;;;12.33;4.90;;;;;;;27.93;38.09;95488.03;6166485;28;103258;-62
2022/07/17 14:12:38;;;;;;;10.00;4.47;;;;;;;27.97;37.96;95488.16;6183144;28;103094;-63
2022/07/17 14:15:42;;;;;;;6.60;4.53;;;;;;;27.84;38.18;95481.91;6156952;28;103169;-58